Time;durP1;ratioP1;P1;durP2;ratioP2;P2;SDS_P1;SDS_P2;PMS_P1;PMS_P2;Temp;Humidity;BMP_temperature;BMP_pressure;BME280_temperature;BME280_humidity;BME280_pressure;Samples;Min_cycle;Max_cycle;Signal;HPM_P1;HPM_P2
2024/04/06 00:51:18;;;;;;;3.70;3.40;;;;;;;11.53;100.00;99772.02;103620;1291;601690;-59
2024/04/06 00:53:46;;;;;;;3.40;3.10;;;;;;;11.90;100.00;99769.66;106351;1260;60826;-58
2024/04/06 00:56:14;;;;;;;4.30;3.50;;;;;;;11.88;100.00;99769.08;106445;1257;61414;-58
2024/04/06 00:58:41;;;;;;;3.60;3.30;;;;;;;11.91;100.00;99766.64;106235;1257;73298;-58
2024/04/06 01:01:09;;;;;;;;;;;;;;;11.86;100.00;99765.80;106088;1258;68159;-58
2024/04/06 01:03:37;;;;;;;4.90;3.50;;;;;;;11.81;100.00;99770.23;106292;1259;71790;-58
2024/04/06 01:06:04;;;;;;;3.90;3.30;;;;;;;11.84;100.00;99770.99;105700;1255;910277;-58
2024/04/06 01:08:32;;;;;;;3.80;3.40;;;;;;;11.85;100.00;99777.96;106695;1256;60104;-58
2024/04/06 01:11:02;;;;;;;3.70;3.20;;;;;;;11.89;100.00;99772.52;106588;1255;71914;-62
2024/04/06 01:13:30;;;;;;;4.10;3.30;;;;;;;11.90;100.00;99767.40;106634;1256;69144;-59
2024/04/06 01:15:58;;;;;;;4.60;4.20;;;;;;;11.94;100.00;99770.39;106585;1255;71897;-58
2024/04/06 01:18:25;;;;;;;;;;;;;;;11.93;100.00;99769.89;106427;1260;61449;-58
2024/04/06 01:20:57;;;;;;;4.60;4.20;;;;;;;11.97;100.00;99765.84;106225;1255;60434;-57
2024/04/06 01:23:24;;;;;;;5.60;5.10;;;;;;;12.03;100.00;99767.33;106420;1256;73524;-57
2024/04/06 01:25:52;;;;;;;5.50;5.00;;;;;;;12.04;100.00;99761.30;106851;1257;69523;-56
2024/04/06 01:28:19;;;;;;;6.10;5.50;;;;;;;11.99;100.00;99762.45;106699;1256;72946;-56
2024/04/06 01:30:47;;;;;;;6.40;5.80;;;;;;;12.01;100.00;99762.50;106695;1255;61507;-57
2024/04/06 01:33:14;;;;;;;5.70;5.20;;;;;;;12.10;100.00;99754.02;106366;1256;60549;-56
2024/04/06 01:35:42;;;;;;;6.50;6.00;;;;;;;11.97;100.00;99752.85;106444;1256;73608;-57
2024/04/06 01:38:10;;;;;;;6.30;5.80;;;;;;;12.01;100.00;99744.73;106317;1256;69196;-56
2024/04/06 01:40:38;;;;;;;7.10;5.90;;;;;;;12.11;100.00;99744.46;107027;1256;71021;-56
2024/04/06 01:43:05;;;;;;;5.30;4.90;;;;;;;12.15;100.00;99745.85;107387;1256;61333;-56
2024/04/06 01:45:34;;;;;;;5.80;5.30;;;;;;;12.06;100.00;99746.96;107049;1255;59657;-56
2024/04/06 01:48:01;;;;;;;6.20;4.70;;;;;;;11.96;100.00;99747.45;105980;1260;74100;-56
2024/04/06 01:50:29;;;;;;;5.10;4.60;;;;;;;11.93;100.00;99744.92;106840;1251;69062;-56
2024/04/06 01:52:56;;;;;;;3.80;3.50;;;;;;;11.99;100.00;99735.70;106992;1257;73323;-57
2024/04/06 01:55:24;;;;;;;;;;;;;;;12.05;100.00;99741.78;107489;1251;62517;-57
2024/04/06 01:57:54;;;;;;;4.40;4.00;;;;;;;11.96;100.00;99742.54;106680;1251;60479;-57
2024/04/06 02:00:22;;;;;;;;;;;;;;;12.03;100.00;99746.23;106743;1250;73652;-57
2024/04/06 02:02:50;;;;;;;3.70;3.40;;;;;;;11.94;100.00;99747.01;107067;1255;69680;-57
2024/04/06 02:05:17;;;;;;;4.00;3.60;;;;;;;11.85;100.00;99739.71;107191;1251;72397;-57
2024/04/06 02:07:45;;;;;;;3.50;3.20;;;;;;;11.69;100.00;99744.79;107039;1251;61613;-57
2024/04/06 02:10:12;;;;;;;4.20;3.80;;;;;;;11.73;100.00;99745.48;106768;1251;60408;-57
2024/04/06 02:12:40;;;;;;;;;;;;;;;11.65;100.00;99746.73;106850;1251;73462;-56
2024/04/06 02:15:08;;;;;;;5.90;3.80;;;;;;;11.58;100.00;99750.04;106854;1251;69614;-57
2024/04/06 02:17:37;;;;;;;3.70;3.30;;;;;;;11.60;100.00;99746.09;107287;1251;72313;-59
2024/04/06 02:20:05;;;;;;;3.90;3.50;;;;;;;11.58;100.00;99743.73;106948;1254;61397;-62
2024/04/06 02:22:33;;;;;;;4.90;3.80;;;;;;;11.47;100.00;99744.39;107104;1251;60366;-58
2024/04/06 02:25:03;;;;;;;4.20;3.60;;;;;;;11.47;100.00;99739.13;107142;1251;72923;-57
2024/04/06 02:27:30;;;;;;;4.00;3.50;;;;;;;11.33;100.00;99741.13;107133;1251;69244;-58
2024/04/06 02:29:58;;;;;;;4.10;3.70;;;;;;;11.28;100.00;99742.79;106836;1251;73375;-57
2024/04/06 02:32:26;;;;;;;4.20;3.80;;;;;;;11.56;100.00;99743.98;107160;1253;61390;-57
2024/04/06 02:34:54;;;;;;;6.40;4.40;;;;;;;11.24;100.00;99748.41;106828;1251;60525;-58
2024/04/06 02:37:21;;;;;;;4.40;4.00;;;;;;;11.28;100.00;99752.25;107040;1255;74493;-57
2024/04/06 02:39:49;;;;;;;4.80;4.10;;;;;;;11.21;100.00;99750.27;107342;1251;70208;-58
2024/04/06 02:42:16;;;;;;;5.80;4.80;;;;;;;11.14;100.00;99752.48;107311;1255;72346;-57
2024/04/06 06:03:45;;;;;;;7.10;5.20;;;;;;;12.79;100.00;99728.33;104244;1291;600769;-55
2024/04/06 06:06:14;;;;;;;8.50;5.40;;;;;;;12.86;100.00;99728.14;106841;1259;61402;-56
2024/04/06 06:08:43;;;;;;;5.20;4.50;;;;;;;12.95;100.00;99728.21;107396;1257;60173;-56
2024/04/06 06:11:11;;;;;;;6.50;5.40;;;;;;;13.00;100.00;99728.48;107529;1259;75519;-55
2024/04/06 06:13:39;;;;;;;9.10;4.90;;;;;;;13.05;100.00;99723.11;107315;1257;68339;-56
2024/04/06 06:16:07;;;;;;;5.90;5.10;;;;;;;13.20;100.00;99721.45;108069;1256;75196;-56
2024/04/06 06:18:35;;;;;;;8.00;5.20;;;;;;;13.32;100.00;99720.14;107690;1253;819668;-56
2024/04/06 06:21:06;;;;;;;;;;;;;;;13.42;100.00;99729.50;108055;1254;62211;-57
2024/04/06 06:23:35;;;;;;;8.00;4.90;;;;;;;13.65;100.00;99723.16;108383;1251;73061;-56
2024/04/06 06:26:04;;;;;;;5.10;3.60;;;;;;;13.65;100.00;99719.64;107849;1252;68523;-55
2024/04/06 06:28:33;;;;;;;7.10;4.40;;;;;;;13.74;100.00;99725.28;107943;1252;72568;-56
2024/04/06 06:31:04;;;;;;;4.40;3.60;;;;;;;13.98;100.00;99720.98;107904;1252;64737;-56
2024/04/06 06:33:33;;;;;;;6.00;3.90;;;;;;;14.03;100.00;99716.99;107974;1252;61708;-56
2024/04/06 06:36:01;;;;;;;6.40;3.70;;;;;;;14.13;100.00;99715.36;108084;1251;74085;-56
2024/04/06 06:38:32;;;;;;;4.20;3.80;;;;;;;14.21;100.00;99710.52;108168;1251;70601;-57
2024/04/06 06:41:21;;;;;;;3.30;3.00;;;;;;;14.44;100.00;99705.70;108085;1253;73466;-56
2024/04/06 06:43:48;;;;;;;5.90;3.40;;;;;;;14.52;100.00;99702.08;108049;1253;60585;-55
2024/04/06 06:46:16;;;;;;;7.50;4.30;;;;;;;14.62;100.00;99701.51;108125;1253;61819;-55
2024/04/06 06:48:44;;;;;;;5.50;3.00;;;;;;;14.70;100.00;99695.77;108283;1251;73658;-56
2024/04/06 06:51:13;;;;;;;2.90;2.60;;;;;;;14.80;100.00;99694.98;107966;1252;69386;-55
2024/04/06 06:53:41;;;;;;;4.50;2.50;;;;;;;14.90;100.00;99697.56;108088;1251;72406;-56
2024/04/06 06:56:10;;;;;;;6.70;2.40;;;;;;;15.10;100.00;99697.62;107781;1253;60625;-56
2024/04/06 06:58:38;;;;;;;5.10;2.00;;;;;;;15.26;100.00;99695.73;108305;1252;59699;-56
2024/04/06 07:01:05;;;;;;;3.20;2.30;;;;;;;15.35;100.00;99697.98;107908;1253;73688;-55
2024/04/06 07:03:33;;;;;;;2.30;2.10;;;;;;;15.47;100.00;99688.60;108176;1251;70839;-56
2024/04/06 07:06:03;;;;;;;7.80;2.00;;;;;;;15.59;100.00;99682.73;108335;1251;72342;-55
2024/04/06 07:08:31;;;;;;;4.20;1.80;;;;;;;15.77;100.00;99676.73;108426;1251;60931;-56
2024/04/06 07:11:05;;;;;;;;;;;;;;;15.98;100.00;99669.35;108331;1252;59655;-56
2024/04/06 07:13:32;;;;;;;2.90;1.70;;;;;;;16.08;100.00;99669.40;108266;1251;74087;-56
2024/04/06 07:16:04;;;;;;;1.90;1.50;;;;;;;16.25;100.00;99658.20;108334;1252;69382;-55
2024/04/06 07:18:32;;;;;;;4.60;2.00;;;;;;;16.39;100.00;99658.74;108309;1253;73571;-57
2024/04/06 07:20:59;;;;;;;3.20;1.70;;;;;;;16.48;100.00;99658.98;108336;1252;61054;-55
2024/04/06 07:23:27;;;;;;;3.20;1.70;;;;;;;16.59;100.00;99656.31;108316;1253;60076;-56
2024/04/06 07:25:54;;;;;;;2.10;1.50;;;;;;;16.69;100.00;99649.79;108055;1252;73627;-56
2024/04/06 07:28:22;;;;;;;2.00;1.50;;;;;;;16.84;100.00;99649.48;108285;1253;70055;-56
2024/04/06 07:30:51;;;;;;;4.00;1.90;;;;;;;16.96;100.00;99643.43;108264;1252;72356;-56
2024/04/06 07:33:19;;;;;;;2.80;1.50;;;;;;;17.06;100.00;99641.95;107832;1253;60690;-55
2024/04/06 07:35:48;;;;;;;2.10;1.40;;;;;;;17.18;100.00;99641.66;108245;1252;60390;-60
2024/04/06 07:38:15;;;;;;;2.20;1.10;;;;;;;17.28;100.00;99637.80;108295;1253;73800;-55
2024/04/06 07:40:46;;;;;;;3.70;1.10;;;;;;;17.42;98.79;99638.23;108145;1253;69690;-55
2024/04/06 07:43:14;;;;;;;3.50;1.20;;;;;;;17.51;92.88;99638.60;107890;1253;73655;-56
2024/04/06 07:45:42;;;;;;;;;;;;;;;17.57;88.97;99633.43;108377;1253;61507;-55
2024/04/06 07:48:09;;;;;;;;;;;;;;;17.63;90.20;99631.04;108270;1253;59685;-55
2024/04/06 07:50:37;;;;;;;3.30;1.50;;;;;;;17.68;90.20;99628.03;108197;1253;72591;-55
2024/04/06 07:53:05;;;;;;;2.60;2.20;;;;;;;17.75;89.04;99623.83;108279;1252;69412;-56
2024/04/06 07:55:32;;;;;;;3.60;2.00;;;;;;;17.86;90.56;99627.27;108241;1253;72462;-56
2024/04/06 07:58:00;;;;;;;;;;;;;;;17.90;85.88;99627.88;108283;1252;61505;-55
2024/04/06 08:00:27;;;;;;;3.80;1.90;;;;;;;17.93;82.44;99619.83;108220;1253;58507;-55
2024/04/06 08:02:55;;;;;;;4.00;1.50;;;;;;;17.96;82.40;99608.67;108096;1253;73608;-56
2024/04/06 08:05:23;;;;;;;3.00;1.30;;;;;;;17.99;79.79;99612.28;108299;1253;69160;-55
2024/04/06 08:07:51;;;;;;;2.40;1.80;;;;;;;18.07;79.04;99608.51;108255;1253;72466;-55
2024/04/06 08:10:20;;;;;;;4.20;1.90;;;;;;;18.16;76.27;99604.67;108420;1252;60197;-56
2024/04/06 08:12:48;;;;;;;3.20;2.00;;;;;;;18.18;73.94;99603.10;107871;1253;59034;-55
2024/04/06 08:15:16;;;;;;;3.00;2.00;;;;;;;18.20;72.37;99600.31;107850;1252;73977;-56
2024/04/06 08:17:48;;;;;;;;;;;;;;;18.23;71.41;99588.38;108110;1253;70199;-56
2024/04/06 08:20:16;;;;;;;7.60;1.60;;;;;;;18.31;72.37;99587.36;108230;1253;71802;-55
2024/04/06 08:22:44;;;;;;;;;;;;;;;18.41;73.24;99585.91;108238;1252;61745;-55
2024/04/06 08:25:11;;;;;;;1.90;1.20;;;;;;;18.49;72.68;99582.50;108315;1252;59532;-56
2024/04/06 08:27:39;;;;;;;5.80;1.50;;;;;;;18.64;70.12;99582.17;108308;1253;73619;-55
2024/04/06 08:30:09;;;;;;;4.30;1.30;;;;;;;18.69;66.99;99576.52;108253;1253;71891;-55
2024/04/06 08:32:39;;;;;;;1.50;1.30;;;;;;;18.80;66.97;99573.52;108110;1253;71679;-56
2024/04/06 08:35:11;;;;;;;3.30;1.60;;;;;;;18.90;66.88;99573.00;108159;1252;60010;-55
2024/04/06 08:37:39;;;;;;;3.70;1.90;;;;;;;19.00;67.84;99566.99;108108;1253;60454;-56
2024/04/06 08:40:09;;;;;;;1.90;1.30;;;;;;;19.08;66.17;99563.88;108284;1253;73949;-55
2024/04/06 08:42:40;;;;;;;2.20;1.40;;;;;;;19.21;65.03;99564.78;108042;1251;70422;-56
2024/04/06 08:45:09;;;;;;;1.70;1.00;;;;;;;19.32;61.37;99561.95;108315;1252;72596;-56
2024/04/06 08:47:37;;;;;;;1.40;1.00;;;;;;;19.38;58.25;99566.49;108312;1252;59554;-56
2024/04/06 08:50:07;;;;;;;2.50;1.20;;;;;;;19.40;57.98;99555.60;108106;1253;60274;-56
2024/04/06 08:52:36;;;;;;;2.10;1.30;;;;;;;19.43;58.67;99559.14;108134;1251;74100;-56
2024/04/06 08:55:05;;;;;;;3.00;1.40;;;;;;;19.44;56.11;99556.05;107831;1253;70260;-56
2024/04/06 08:57:34;;;;;;;3.30;1.10;;;;;;;19.53;56.54;99554.45;108075;1252;71743;-56
2024/04/06 09:00:07;;;;;;;2.30;1.00;;;;;;;19.61;54.31;99556.60;107879;1253;61670;-56
2024/04/06 09:02:35;;;;;;;1.60;1.10;;;;;;;19.70;54.81;99551.11;108107;1251;59862;-56
2024/04/06 09:05:03;;;;;;;2.30;1.20;;;;;;;19.74;53.56;99542.41;108074;1253;73677;-56
2024/04/06 09:07:31;;;;;;;;;;;;;;;19.76;53.65;99531.41;108275;1252;69622;-56
2024/04/06 09:09:58;;;;;;;;;;;;;;;19.93;52.31;99536.44;108316;1253;72971;-59
2024/04/06 09:12:26;;;;;;;;;;;;;;;20.03;51.58;99540.71;108168;1253;60050;-55
2024/04/06 09:14:54;;;;;;;;;;;;;;;20.11;51.80;99542.20;108085;1253;59249;-55
2024/04/06 09:17:22;;;;;;;1.90;1.30;;;;;;;20.12;51.53;99542.11;108003;1252;73597;-57
2024/04/06 09:19:51;;;;;;;1.90;1.30;;;;;;;20.16;50.31;99541.92;108241;1253;71466;-57
2024/04/06 09:22:20;;;;;;;3.10;1.30;;;;;;;20.15;50.05;99536.18;108226;1253;72400;-57
2024/04/06 09:24:48;;;;;;;1.40;1.20;;;;;;;20.13;51.74;99530.80;108218;1253;59880;-56
2024/04/06 09:27:18;;;;;;;3.30;0.90;;;;;;;20.20;50.54;99529.70;107890;1252;60951;-56
2024/04/06 09:29:47;;;;;;;1.50;1.00;;;;;;;20.26;47.49;99525.45;107968;1251;74264;-55
2024/04/06 09:32:19;;;;;;;1.50;1.10;;;;;;;20.30;46.60;99523.50;108238;1252;71818;-55
2024/04/06 09:34:52;;;;;;;1.40;1.30;;;;;;;20.26;46.87;99523.51;108001;1254;72759;-55
2024/04/06 09:37:38;;;;;;;2.50;1.20;;;;;;;20.24;47.03;99522.63;108243;1253;60024;-56
2024/04/06 09:40:09;;;;;;;1.20;1.00;;;;;;;20.26;48.07;99518.91;107800;1253;59820;-56
2024/04/06 09:42:37;;;;;;;3.60;1.50;;;;;;;20.31;49.19;99518.59;108288;1255;72604;-55
2024/04/06 09:45:05;;;;;;;3.20;1.20;;;;;;;20.37;49.30;99512.02;108253;1253;71861;-57
2024/04/06 09:47:33;;;;;;;2.60;1.40;;;;;;;20.41;49.03;99506.71;108177;1253;74010;-56
2024/04/06 09:50:01;;;;;;;4.00;1.30;;;;;;;20.52;49.60;99507.05;108232;1253;60377;-56
2024/04/06 09:52:28;;;;;;;3.10;1.30;;;;;;;20.57;48.58;99503.00;108337;1253;59940;-55
2024/04/06 09:54:56;;;;;;;1.60;1.10;;;;;;;20.58;48.30;99504.19;108194;1252;73583;-55
2024/04/06 09:57:23;;;;;;;4.90;1.30;;;;;;;20.62;48.75;99502.05;108288;1253;69670;-55
2024/04/06 10:00:01;;;;;;;1.40;0.90;;;;;;;20.73;46.23;99504.14;108315;1253;71742;-55
2024/04/06 10:02:33;;;;;;;2.40;1.10;;;;;;;20.69;45.88;99501.13;108176;1253;60080;-56
2024/04/06 10:05:05;;;;;;;1.70;1.30;;;;;;;20.62;47.19;99493.88;108157;1252;60311;-55
2024/04/06 10:07:33;;;;;;;1.50;1.10;;;;;;;20.67;46.58;99495.06;108225;1253;73681;-57
2024/04/06 10:10:02;;;;;;;2.70;1.10;;;;;;;20.69;44.86;99493.33;108389;1252;69638;-56
2024/04/06 10:12:46;;;;;;;2.30;1.30;;;;;;;20.64;44.34;99492.48;108305;1251;72774;-55
2024/04/06 10:15:15;;;;;;;1.40;1.00;;;;;;;20.58;44.23;99489.55;108259;1251;60532;-55
2024/04/06 10:17:43;;;;;;;2.00;1.50;;;;;;;20.60;45.00;99488.52;108294;1255;59987;-55
2024/04/06 10:20:13;;;;;;;1.90;0.90;;;;;;;20.65;45.06;99489.42;108276;1253;74431;-55
2024/04/06 10:22:44;;;;;;;1.70;1.00;;;;;;;20.68;44.91;99482.20;108241;1253;71019;-56
2024/04/06 10:25:12;;;;;;;1.80;1.30;;;;;;;20.72;45.37;99481.78;108286;1253;73466;-56
2024/04/06 10:27:40;;;;;;;1.20;0.90;;;;;;;20.73;44.85;99476.70;108363;1251;60055;-60
2024/04/06 10:30:07;;;;;;;2.00;1.10;;;;;;;20.67;44.22;99473.16;108108;1251;62458;-56
2024/04/06 10:32:35;;;;;;;2.40;1.10;;;;;;;20.70;44.57;99473.12;108294;1253;74742;-56
2024/04/06 10:35:03;;;;;;;;;;;;;;;20.73;44.92;99470.17;108319;1253;69246;-56
2024/04/06 10:37:31;;;;;;;2.50;1.10;;;;;;;20.71;44.15;99465.01;108356;1251;73098;-56
2024/04/06 10:39:59;;;;;;;1.10;0.70;;;;;;;20.68;43.34;99464.34;108269;1252;60050;-56
2024/04/06 10:42:26;;;;;;;1.50;1.00;;;;;;;20.69;43.79;99464.98;108255;1253;60069;-56
2024/04/06 10:44:55;;;;;;;;;;;;;;;20.67;43.80;99460.93;108400;1252;74131;-56
2024/04/06 10:47:22;;;;;;;653.20;351.80;;;;;;;20.68;44.09;99456.38;108329;1253;72407;-56
2024/04/06 10:49:53;;;;;;;160.70;124.50;;;;;;;20.73;43.94;99455.91;108365;1253;72503;-55
2024/04/06 10:52:21;;;;;;;83.70;74.90;;;;;;;20.92;43.39;99453.33;108348;1253;59885;-57
2024/04/06 10:54:49;;;;;;;31.20;28.20;;;;;;;21.07;42.96;99449.52;108372;1252;59709;-56
2024/04/06 10:57:19;;;;;;;17.80;13.10;;;;;;;21.28;42.16;99448.70;107846;1253;75315;-56
2024/04/06 10:59:47;;;;;;;162.90;140.30;;;;;;;21.36;41.67;99442.80;108393;1253;71619;-56
2024/04/06 11:02:15;;;;;;;;;;;;;;;21.38;42.19;99436.19;108324;1252;71777;-56
2024/04/06 11:04:43;;;;;;;39.70;35.00;;;;;;;21.42;41.56;99427.42;108304;1251;60745;-55
2024/04/06 11:07:11;;;;;;;47.40;42.90;;;;;;;21.46;41.99;99432.47;108268;1251;60307;-55
2024/04/06 11:09:38;;;;;;;8.40;6.30;;;;;;;21.52;41.82;99423.69;108294;1251;74761;-56
2024/04/06 11:12:06;;;;;;;;;;;;;;;21.57;41.58;99420.02;107960;1252;71084;-55
2024/04/06 11:14:34;;;;;;;4.80;2.60;;;;;;;21.65;41.88;99418.05;108329;1253;74498;-55
2024/04/06 11:17:01;;;;;;;1.90;1.30;;;;;;;21.77;41.18;99419.66;108235;1252;59863;-55
2024/04/06 11:19:29;;;;;;;1.20;1.00;;;;;;;21.86;40.74;99413.24;108271;1253;59260;-55
2024/04/06 11:22:06;;;;;;;4.50;1.20;;;;;;;21.97;40.53;99405.27;107920;1253;74441;-55
2024/04/06 11:24:34;;;;;;;1.60;1.30;;;;;;;22.00;39.94;99407.66;108281;1251;69559;-56
2024/04/06 11:27:07;;;;;;;3.10;1.30;;;;;;;21.98;39.86;99398.77;108402;1253;71776;-55
2024/04/06 11:29:34;;;;;;;2.50;0.90;;;;;;;21.82;40.20;99395.77;108292;1252;59427;-56
2024/04/06 11:32:02;;;;;;;1.40;1.30;;;;;;;21.65;40.70;99393.47;108295;1251;59859;-57
2024/04/06 11:34:29;;;;;;;1.50;1.40;;;;;;;21.51;41.19;99394.75;108213;1251;74460;-55
2024/04/06 11:36:59;;;;;;;1.40;1.30;;;;;;;21.39;42.15;99392.47;108301;1253;71252;-55
2024/04/06 11:39:27;;;;;;;1.30;1.20;;;;;;;21.23;43.92;99393.88;108380;1253;72496;-55
2024/04/06 11:41:54;;;;;;;;;;;;;;;21.09;44.05;99395.86;108120;1253;60099;-55
2024/04/06 11:44:22;;;;;;;4.70;3.90;;;;;;;20.93;44.39;99397.45;108273;1251;59852;-55
2024/04/06 11:46:50;;;;;;;5.90;5.00;;;;;;;20.72;44.68;99394.89;108266;1253;74473;-55
2024/04/06 11:49:18;;;;;;;6.30;5.80;;;;;;;20.61;44.65;99390.50;108333;1252;69304;-55
2024/04/06 11:51:46;;;;;;;3.30;2.70;;;;;;;20.50;44.80;99388.10;108121;1254;72945;-56
2024/04/06 11:54:13;;;;;;;4.90;1.90;;;;;;;20.40;45.37;99383.80;108331;1251;60012;-56
2024/04/06 11:56:41;;;;;;;;;;;;;;;20.29;46.09;99379.09;108311;1251;59505;-55
2024/04/06 11:59:08;;;;;;;2.60;1.90;;;;;;;20.24;46.21;99377.88;108068;1252;74478;-55
2024/04/06 12:01:36;;;;;;;4.40;2.10;;;;;;;20.24;46.54;99375.64;108292;1251;70939;-55
2024/04/06 12:04:04;;;;;;;3.00;2.30;;;;;;;20.23;46.70;99371.25;108272;1253;72892;-56
2024/04/06 12:06:31;;;;;;;2.80;2.20;;;;;;;20.23;47.07;99370.19;108221;1253;60471;-56
2024/04/06 12:08:59;;;;;;;2.10;1.80;;;;;;;20.20;47.19;99366.17;108249;1253;59403;-56
2024/04/06 12:11:27;;;;;;;3.10;2.30;;;;;;;20.16;47.52;99367.89;108336;1253;74742;-55
2024/04/06 12:13:54;;;;;;;3.50;3.00;;;;;;;20.09;48.76;99367.27;108422;1251;69981;-56
2024/04/06 12:16:22;;;;;;;3.70;2.80;;;;;;;20.01;49.43;99366.55;108315;1253;71789;-56
2024/04/06 12:18:50;;;;;;;4.40;2.50;;;;;;;19.98;49.89;99365.73;108249;1253;59870;-56
2024/04/06 12:21:18;;;;;;;3.30;2.60;;;;;;;19.97;49.84;99366.35;108269;1253;60013;-55
2024/04/06 12:23:45;;;;;;;4.90;2.10;;;;;;;19.95;48.98;99362.86;108324;1253;75510;-55
2024/04/06 12:26:13;;;;;;;;;;;;;;;19.97;49.16;99355.48;108303;1256;71492;-56
2024/04/06 12:28:40;;;;;;;3.70;3.00;;;;;;;19.98;48.87;99352.95;108310;1253;72743;-54
2024/04/06 12:31:09;;;;;;;3.70;3.40;;;;;;;19.98;48.22;99344.90;108220;1253;64451;-55
2024/04/06 12:33:36;;;;;;;4.30;3.90;;;;;;;19.99;48.44;99344.98;108358;1251;59993;-55
2024/04/06 12:36:05;;;;;;;4.30;3.80;;;;;;;20.00;48.34;99344.03;108399;1253;74894;-58
2024/04/06 12:38:32;;;;;;;4.50;2.60;;;;;;;19.98;48.75;99359.36;108428;1252;68761;-56
2024/04/06 12:41:00;;;;;;;5.30;1.30;;;;;;;19.72;53.16;99372.98;108188;1252;73031;-56
2024/04/06 12:43:27;;;;;;;2.80;1.20;;;;;;;19.35;61.81;99373.70;108310;1252;60569;-59
2024/04/06 12:45:55;;;;;;;1.60;1.20;;;;;;;19.01;74.38;99377.59;108161;1252;59931;-58
2024/04/06 12:48:22;;;;;;;1.50;1.40;;;;;;;18.67;82.22;99376.40;108340;1254;76687;-55
2024/04/06 12:50:53;;;;;;;2.80;1.70;;;;;;;18.40;92.20;99384.02;108337;1252;68403;-56
2024/04/06 12:53:20;;;;;;;1.90;1.70;;;;;;;18.20;96.76;99388.29;108376;1253;72711;-56
2024/04/06 12:55:48;;;;;;;2.20;1.60;;;;;;;18.04;97.82;99385.61;108237;1253;59247;-55
2024/04/06 12:58:15;;;;;;;2.30;1.60;;;;;;;17.94;99.02;99388.19;108326;1253;59257;-55
2024/04/06 13:00:43;;;;;;;5.00;2.00;;;;;;;17.75;100.00;99365.15;108324;1253;73435;-56
2024/04/06 13:03:11;;;;;;;3.00;2.00;;;;;;;17.74;100.00;99379.61;107854;1259;69328;-55
2024/04/06 13:07:30;;;;;;;3.00;2.00;;;;;;;17.19;100.00;99379.11;101686;1290;600818;-56
2024/04/06 13:10:01;;;;;;;4.50;2.40;;;;;;;17.42;100.00;99378.09;104704;1270;60052;-56
2024/04/06 13:12:31;;;;;;;2.20;2.00;;;;;;;17.39;100.00;99378.20;104020;1266;60157;-56
2024/04/06 13:15:13;;;;;;;3.30;2.20;;;;;;;17.38;100.00;99378.98;103792;1266;73154;-56
2024/04/06 13:17:42;;;;;;;3.50;2.40;;;;;;;17.29;100.00;99378.73;103949;1266;68811;-54
2024/04/06 13:22:44;;;;;;;3.90;2.30;;;;;;;17.15;100.00;99372.19;104714;1265;62406;-57
2024/04/06 13:25:13;;;;;;;2.70;2.20;;;;;;;17.11;100.00;99380.55;104584;1263;59953;-56
2024/04/06 13:27:41;;;;;;;5.20;2.20;;;;;;;17.06;100.00;99383.95;104464;1264;76286;-56
2024/04/06 13:30:09;;;;;;;2.80;2.00;;;;;;;17.03;100.00;99386.48;104145;1266;69896;-55
2024/04/06 13:32:37;;;;;;;1.90;1.70;;;;;;;17.01;100.00;99383.85;104297;1263;74481;-55
2024/04/06 13:35:06;;;;;;;3.40;2.10;;;;;;;16.93;100.00;99386.20;104258;1269;61436;-54
2024/04/06 13:37:34;;;;;;;4.90;2.00;;;;;;;16.86;100.00;99384.38;104464;1264;59926;-55
2024/04/06 13:40:10;;;;;;;4.10;2.20;;;;;;;16.87;100.00;99382.71;103981;1264;73943;-55
2024/04/06 13:42:38;;;;;;;5.40;2.50;;;;;;;16.79;100.00;99372.16;104418;1263;70684;-55
2024/04/06 13:45:13;;;;;;;4.90;2.70;;;;;;;16.85;100.00;99383.07;104752;1257;71863;-55
2024/04/06 13:47:41;;;;;;;6.10;3.90;;;;;;;16.84;100.00;99380.79;104413;1260;61118;-54
2024/04/06 13:50:09;;;;;;;6.40;4.50;;;;;;;16.89;100.00;99376.50;104519;1262;60501;-55
2024/04/06 13:52:37;;;;;;;;;;;;;;;16.92;100.00;99375.62;104143;1272;72703;-55
2024/04/06 13:55:05;;;;;;;28.30;22.00;;;;;;;16.96;100.00;99368.64;104440;1260;68333;-55
2024/04/06 13:57:33;;;;;;;25.30;19.10;;;;;;;16.98;100.00;99369.20;104434;1261;73326;-55
2024/04/06 14:00:03;;;;;;;;;;;;;;;16.99;100.00;99365.54;104495;1257;61550;-54
2024/04/06 14:02:36;;;;;;;9.60;6.80;;;;;;;17.00;100.00;99363.20;104221;1272;60499;-56
2024/04/06 14:05:05;;;;;;;8.10;5.00;;;;;;;16.98;100.00;99358.02;104478;1267;74397;-55
2024/04/06 14:07:33;;;;;;;5.70;4.20;;;;;;;16.97;100.00;99351.00;105282;1254;69472;-55
2024/04/06 14:10:00;;;;;;;6.10;3.50;;;;;;;16.95;100.00;99347.64;104592;1256;72493;-55
2024/04/06 14:12:28;;;;;;;4.50;3.50;;;;;;;16.93;100.00;99343.83;104688;1256;62466;-55
2024/04/06 14:14:55;;;;;;;5.90;4.50;;;;;;;16.90;100.00;99340.16;104727;1254;60506;-55
2024/04/06 14:17:23;;;;;;;9.30;4.50;;;;;;;16.87;100.00;99339.12;104629;1256;73906;-55
2024/04/06 14:19:50;;;;;;;9.00;4.90;;;;;;;16.82;100.00;99339.36;105213;1253;68864;-55
2024/04/06 14:22:18;;;;;;;7.10;5.10;;;;;;;16.74;100.00;99335.13;104839;1253;73254;-56
2024/04/06 14:24:45;;;;;;;12.10;7.80;;;;;;;16.71;100.00;99328.75;105131;1253;62065;-56
2024/04/06 14:27:13;;;;;;;14.50;7.70;;;;;;;16.68;100.00;99330.80;104841;1252;60451;-55
2024/04/06 14:29:41;;;;;;;9.20;6.00;;;;;;;16.68;100.00;99323.91;104843;1254;74199;-55
2024/04/06 14:32:08;;;;;;;6.90;4.60;;;;;;;16.67;100.00;99326.81;104633;1253;69523;-56
2024/04/06 14:34:36;;;;;;;6.10;4.70;;;;;;;16.65;100.00;99322.71;105365;1256;71626;-55
2024/04/06 14:37:04;;;;;;;;;;;;;;;16.65;100.00;99318.66;105420;1252;60740;-56
2024/04/06 14:39:31;;;;;;;;;;;;;;;16.65;100.00;99317.24;105093;1264;60557;-57
2024/04/06 14:41:59;;;;;;;9.50;4.80;;;;;;;16.71;100.00;99314.64;104737;1253;76000;-55
2024/04/06 14:44:27;;;;;;;4.60;3.70;;;;;;;16.72;100.00;99314.35;104970;1269;69602;-56
2024/04/06 14:46:54;;;;;;;4.80;4.00;;;;;;;16.75;100.00;99318.27;105735;1253;72830;-56
2024/04/06 14:49:22;;;;;;;6.50;3.80;;;;;;;16.72;100.00;99317.95;105088;1257;61507;-56
2024/04/06 14:51:50;;;;;;;7.20;5.30;;;;;;;16.69;100.00;99316.24;105288;1253;60475;-57
2024/04/06 14:54:17;;;;;;;9.20;4.50;;;;;;;16.67;100.00;99321.81;105110;1253;74587;-56
2024/04/06 14:56:45;;;;;;;9.40;6.60;;;;;;;16.58;100.00;99327.95;105156;1253;70197;-55
2024/04/06 14:59:12;;;;;;;;;;;;;;;16.51;100.00;99334.14;105046;1253;73178;-56
2024/04/06 15:01:40;;;;;;;11.30;6.30;;;;;;;16.46;100.00;99335.40;105076;1252;61562;-55
2024/04/06 15:04:08;;;;;;;10.30;8.20;;;;;;;16.40;100.00;99347.69;105675;1252;60103;-56
2024/04/06 15:06:35;;;;;;;10.10;6.30;;;;;;;16.39;100.00;99366.67;105209;1253;74768;-57
2024/04/06 15:09:04;;;;;;;6.40;4.40;;;;;;;16.35;100.00;99369.23;104791;1256;68362;-56
2024/04/06 15:11:32;;;;;;;7.10;4.70;;;;;;;16.30;100.00;99362.86;104751;1260;73407;-56
2024/04/06 15:13:59;;;;;;;69.80;58.20;;;;;;;16.24;100.00;99364.91;104903;1253;61552;-56
2024/04/06 15:16:27;;;;;;;89.10;74.00;;;;;;;16.19;100.00;99366.52;104628;1253;60699;-58
2024/04/06 15:18:55;;;;;;;16.30;12.60;;;;;;;16.12;100.00;99371.59;104839;1256;73622;-56
2024/04/06 15:21:23;;;;;;;7.60;5.00;;;;;;;16.02;100.00;99374.22;104689;1254;70605;-56
2024/04/06 15:23:50;;;;;;;;;;;;;;;16.02;100.00;99379.38;104554;1260;73466;-55
2024/04/06 15:26:17;;;;;;;;;;;;;;;15.95;100.00;99376.30;104666;1260;62062;-56
2024/04/06 15:28:45;;;;;;;5.20;4.60;;;;;;;15.90;100.00;99378.21;104846;1253;60501;-55
2024/04/06 15:31:12;;;;;;;5.00;4.30;;;;;;;15.82;100.00;99379.67;104691;1254;74309;-55
2024/04/06 15:33:45;;;;;;;5.90;4.30;;;;;;;15.75;100.00;99378.37;104862;1254;70287;-55
2024/04/06 15:36:13;;;;;;;4.20;2.80;;;;;;;15.69;100.00;99375.08;104598;1253;72426;-55
2024/04/06 15:38:41;;;;;;;4.40;3.50;;;;;;;15.61;100.00;99369.19;104562;1253;61555;-55
2024/04/06 15:41:09;;;;;;;3.60;3.30;;;;;;;15.62;100.00;99363.70;104711;1253;60434;-55
2024/04/06 15:43:36;;;;;;;5.70;3.30;;;;;;;15.64;100.00;99361.92;104577;1256;73827;-56
2024/04/06 15:46:04;;;;;;;7.00;3.40;;;;;;;15.66;100.00;99359.70;105139;1253;70249;-56